6M7 weather

Marianna Lee County Steve Edwards Field
Marianna, Arkansas, United States

Public forecast

Using degrees Fahrenheit for public forecast. Weather courtesy of forecast.io.

METAR (pilot weather report)

Closest report is Tunica Municipal Airport, 23.7 nm (43.8 km) ESE. Retrieved 2019/08/22 08:35 UTC (0 seconds ago):

KUTA 220835Z AUTO 17004KT 10SM 23/22 A2998 RMK AO2 TSNO

TAF (pilot weather forecast)

Closest forecast is Memphis International Airport, 44.0 nm (81.4 km) ENE. Retrieved 2019/08/22 06:24 UTC (2 hours ago):

TAF KMEM 220522Z 2206/2312 18006KT P6SM FEW050 BKN250 TEMPO 2212/2215 SCT008 FM221600 20007KT P6SM VCSH SCT035 BKN250 FM222000 22008KT P6SM VCTS BKN045CB BKN150 FM230200 01006KT P6SM VCSH BKN040 BKN100 FM230900 15006KT P6SM FEW006 BKN025